sensor_id;sensor_type;location;lat;lon;timestamp;temperature;humidity
4435;DHT22;46552;52.150;8.428;2023-07-08T00:15:46;18.10;99.90
4435;DHT22;46552;52.150;8.428;2023-07-08T00:18:14;18.10;99.90
4435;DHT22;46552;52.150;8.428;2023-07-08T00:20:44;18.00;99.90
4435;DHT22;46552;52.150;8.428;2023-07-08T00:28:09;17.80;99.90
4435;DHT22;46552;52.150;8.428;2023-07-08T00:33:06;17.80;99.90
4435;DHT22;46552;52.150;8.428;2023-07-08T00:35:35;17.80;99.90
4435;DHT22;46552;52.150;8.428;2023-07-08T00:38:11;17.70;99.90
4435;DHT22;46552;52.150;8.428;2023-07-08T00:40:49;17.70;99.90
4435;DHT22;46552;52.150;8.428;2023-07-08T00:45:48;17.60;99.90
4435;DHT22;46552;52.150;8.428;2023-07-08T00:48:21;17.50;99.90
4435;DHT22;46552;52.150;8.428;2023-07-08T00:50:50;17.50;99.90
4435;DHT22;46552;52.150;8.428;2023-07-08T00:53:26;17.60;99.90
4435;DHT22;46552;52.150;8.428;2023-07-08T00:55:56;17.50;99.90
4435;DHT22;46552;52.150;8.428;2023-07-08T00:58:30;17.50;99.90
4435;DHT22;46552;52.150;8.428;2023-07-08T01:00:59;17.50;99.90
4435;DHT22;46552;52.150;8.428;2023-07-08T01:03:30;17.50;99.90
4435;DHT22;46552;52.150;8.428;2023-07-08T01:08:27;17.30;99.90
4435;DHT22;46552;52.150;8.428;2023-07-08T01:11:00;14.70;99.90
4435;DHT22;46552;52.150;8.428;2023-07-08T01:13:30;17.10;99.90
4435;DHT22;46552;52.150;8.428;2023-07-08T01:21:02;17.10;99.90
4435;DHT22;46552;52.150;8.428;2023-07-08T01:23:34;17.10;99.90
4435;DHT22;46552;52.150;8.428;2023-07-08T01:28:30;17.20;99.90
4435;DHT22;46552;52.150;8.428;2023-07-08T01:38:24;17.00;99.90
4435;DHT22;46552;52.150;8.428;2023-07-08T01:40:54;16.90;99.90
4435;DHT22;46552;52.150;8.428;2023-07-08T01:45:50;16.80;99.90
4435;DHT22;46552;52.150;8.428;2023-07-08T01:48:20;16.70;99.90
4435;DHT22;46552;52.150;8.428;2023-07-08T01:50:54;16.70;99.90
4435;DHT22;46552;52.150;8.428;2023-07-08T01:53:27;16.70;99.90
4435;DHT22;46552;52.150;8.428;2023-07-08T01:55:56;16.70;99.90
4435;DHT22;46552;52.150;8.428;2023-07-08T02:10:42;16.50;99.90
4435;DHT22;46552;52.150;8.428;2023-07-08T02:13:11;16.50;99.90
4435;DHT22;46552;52.150;8.428;2023-07-08T02:30:27;16.40;99.90
4435;DHT22;46552;52.150;8.428;2023-07-08T02:35:24;16.40;99.90
4435;DHT22;46552;52.150;8.428;2023-07-08T02:47:43;16.20;99.90
4435;DHT22;46552;52.150;8.428;2023-07-08T02:50:11;16.10;99.90
4435;DHT22;46552;52.150;8.428;2023-07-08T02:55:08;16.00;99.90
4435;DHT22;46552;52.150;8.428;2023-07-08T03:00:04;15.90;99.90
4435;DHT22;46552;52.150;8.428;2023-07-08T03:05:01;16.00;99.90
4435;DHT22;46552;52.150;8.428;2023-07-08T03:22:16;15.80;99.90
4435;DHT22;46552;52.150;8.428;2023-07-08T03:27:13;15.80;99.90
4435;DHT22;46552;52.150;8.428;2023-07-08T03:29:41;15.80;99.90
4435;DHT22;46552;52.150;8.428;2023-07-08T03:32:10;15.80;99.90
4435;DHT22;46552;52.150;8.428;2023-07-08T03:39:34;15.90;99.90
4435;DHT22;46552;52.150;8.428;2023-07-08T03:51:54;15.70;99.90
4435;DHT22;46552;52.150;8.428;2023-07-08T03:54:23;15.70;99.90
4435;DHT22;46552;52.150;8.428;2023-07-08T03:56:52;15.70;99.90
4435;DHT22;46552;52.150;8.428;2023-07-08T04:04:15;15.80;99.90
4435;DHT22;46552;52.150;8.428;2023-07-08T04:06:43;15.80;99.90
4435;DHT22;46552;52.150;8.428;2023-07-08T04:14:08;15.90;99.90
4435;DHT22;46552;52.150;8.428;2023-07-08T04:16:45;15.90;99.90
4435;DHT22;46552;52.150;8.428;2023-07-08T04:21:42;16.00;99.90
4435;DHT22;46552;52.150;8.428;2023-07-08T04:29:10;16.20;99.90
4435;DHT22;46552;52.150;8.428;2023-07-08T04:46:32;16.40;99.90
4435;DHT22;46552;52.150;8.428;2023-07-08T04:56:26;16.60;99.90
4435;DHT22;46552;52.150;8.428;2023-07-08T05:01:30;16.80;99.90
4435;DHT22;46552;52.150;8.428;2023-07-08T05:18:43;17.50;99.90
4435;DHT22;46552;52.150;8.428;2023-07-08T05:26:06;17.90;99.90
4435;DHT22;46552;52.150;8.428;2023-07-08T05:31:02;18.00;99.90
4435;DHT22;46552;52.150;8.428;2023-07-08T05:33:31;18.10;99.90
4435;DHT22;46552;52.150;8.428;2023-07-08T05:36:00;18.20;99.90
4435;DHT22;46552;52.150;8.428;2023-07-08T05:40:55;18.40;99.90
4435;DHT22;46552;52.150;8.428;2023-07-08T05:53:14;18.80;99.90
4435;DHT22;46552;52.150;8.428;2023-07-08T06:10:32;19.50;99.90
4435;DHT22;46552;52.150;8.428;2023-07-08T06:27:51;20.10;99.90
4435;DHT22;46552;52.150;8.428;2023-07-08T06:40:09;20.50;99.90
4435;DHT22;46552;52.150;8.428;2023-07-08T06:45:06;20.70;99.90
4435;DHT22;46552;52.150;8.428;2023-07-08T06:47:45;20.90;99.90
4435;DHT22;46552;52.150;8.428;2023-07-08T06:55:09;21.10;99.90
4435;DHT22;46552;52.150;8.428;2023-07-08T07:00:08;21.20;99.90
4435;DHT22;46552;52.150;8.428;2023-07-08T07:05:04;21.50;99.90
4435;DHT22;46552;52.150;8.428;2023-07-08T07:09:59;21.60;99.90
4435;DHT22;46552;52.150;8.428;2023-07-08T07:17:24;22.10;99.90
4435;DHT22;46552;52.150;8.428;2023-07-08T07:27:14;22.20;99.90
4435;DHT22;46552;52.150;8.428;2023-07-08T07:29:43;22.60;99.90
4435;DHT22;46552;52.150;8.428;2023-07-08T07:32:12;22.70;99.90
4435;DHT22;46552;52.150;8.428;2023-07-08T07:34:42;22.80;99.70
4435;DHT22;46552;52.150;8.428;2023-07-08T07:37:12;23.00;99.50
4435;DHT22;46552;52.150;8.428;2023-07-08T07:42:07;23.20;98.80
4435;DHT22;46552;52.150;8.428;2023-07-08T07:47:06;23.60;99.90
4435;DHT22;46552;52.150;8.428;2023-07-08T07:49:33;23.50;99.90
4435;DHT22;46552;52.150;8.428;2023-07-08T07:52:02;23.60;98.40
4435;DHT22;46552;52.150;8.428;2023-07-08T07:59:25;24.00;97.70
4435;DHT22;46552;52.150;8.428;2023-07-08T08:06:48;24.50;99.90
4435;DHT22;46552;52.150;8.428;2023-07-08T08:09:16;24.60;97.10
4435;DHT22;46552;52.150;8.428;2023-07-08T08:16:40;25.00;97.50
4435;DHT22;46552;52.150;8.428;2023-07-08T08:19:07;25.20;99.90
4435;DHT22;46552;52.150;8.428;2023-07-08T08:21:35;25.30;99.90
4435;DHT22;46552;52.150;8.428;2023-07-08T08:24:05;25.50;98.60
4435;DHT22;46552;52.150;8.428;2023-07-08T08:26:36;25.70;95.80
4435;DHT22;46552;52.150;8.428;2023-07-08T08:29:03;25.80;99.10
4435;DHT22;46552;52.150;8.428;2023-07-08T08:31:30;25.90;99.70
4435;DHT22;46552;52.150;8.428;2023-07-08T08:33:58;26.10;96.90
4435;DHT22;46552;52.150;8.428;2023-07-08T08:36:25;26.20;94.70
4435;DHT22;46552;52.150;8.428;2023-07-08T08:38:52;26.30;96.60
4435;DHT22;46552;52.150;8.428;2023-07-08T08:41:28;26.40;94.10
4435;DHT22;46552;52.150;8.428;2023-07-08T08:43:59;26.60;94.00
4435;DHT22;46552;52.150;8.428;2023-07-08T08:46:31;26.80;93.70
4435;DHT22;46552;52.150;8.428;2023-07-08T08:49:04;26.80;93.20
4435;DHT22;46552;52.150;8.428;2023-07-08T08:51:33;27.10;93.20
4435;DHT22;46552;52.150;8.428;2023-07-08T08:56:31;27.40;93.90
4435;DHT22;46552;52.150;8.428;2023-07-08T08:59:07;27.60;92.20
4435;DHT22;46552;52.150;8.428;2023-07-08T09:01:37;27.80;92.50
4435;DHT22;46552;52.150;8.428;2023-07-08T09:04:10;27.90;93.80
4435;DHT22;46552;52.150;8.428;2023-07-08T09:06:39;28.20;91.60
4435;DHT22;46552;52.150;8.428;2023-07-08T09:09:12;28.30;91.30
4435;DHT22;46552;52.150;8.428;2023-07-08T09:11:45;28.50;90.80
4435;DHT22;46552;52.150;8.428;2023-07-08T09:14:22;28.70;90.90
4435;DHT22;46552;52.150;8.428;2023-07-08T09:16:56;28.80;90.50
4435;DHT22;46552;52.150;8.428;2023-07-08T09:19:29;28.90;90.30
4435;DHT22;46552;52.150;8.428;2023-07-08T09:22:01;29.10;91.50
4435;DHT22;46552;52.150;8.428;2023-07-08T09:24:33;29.30;91.60
4435;DHT22;46552;52.150;8.428;2023-07-08T09:27:02;29.40;92.50
4435;DHT22;46552;52.150;8.428;2023-07-08T09:29:32;29.50;88.00
4435;DHT22;46552;52.150;8.428;2023-07-08T09:32:11;29.70;87.40
4435;DHT22;46552;52.150;8.428;2023-07-08T09:34:42;29.90;86.40
4435;DHT22;46552;52.150;8.428;2023-07-08T09:37:24;30.10;91.00
4435;DHT22;46552;52.150;8.428;2023-07-08T09:39:52;30.20;85.00
4435;DHT22;46552;52.150;8.428;2023-07-08T09:42:21;30.30;84.40
4435;DHT22;46552;52.150;8.428;2023-07-08T09:44:55;30.30;84.00
4435;DHT22;46552;52.150;8.428;2023-07-08T09:47:25;30.40;83.10
4435;DHT22;46552;52.150;8.428;2023-07-08T09:49:54;30.70;83.00
4435;DHT22;46552;52.150;8.428;2023-07-08T09:52:21;30.70;81.60
4435;DHT22;46552;52.150;8.428;2023-07-08T09:54:49;30.80;86.00
4435;DHT22;46552;52.150;8.428;2023-07-08T09:57:24;30.00;79.60
4435;DHT22;46552;52.150;8.428;2023-07-08T09:59:57;31.30;79.50
4435;DHT22;46552;52.150;8.428;2023-07-08T10:02:31;31.20;81.70
4435;DHT22;46552;52.150;8.428;2023-07-08T10:05:10;31.10;86.60
4435;DHT22;46552;52.150;8.428;2023-07-08T10:10:10;31.40;76.80
4435;DHT22;46552;52.150;8.428;2023-07-08T10:12:41;31.20;77.60
4435;DHT22;46552;52.150;8.428;2023-07-08T10:15:20;31.40;84.80
4435;DHT22;46552;52.150;8.428;2023-07-08T10:22:50;32.40;75.10
4435;DHT22;46552;52.150;8.428;2023-07-08T10:25:27;33.40;74.50
4435;DHT22;46552;52.150;8.428;2023-07-08T10:28:00;32.70;73.00
4435;DHT22;46552;52.150;8.428;2023-07-08T10:33:38;32.50;75.80
4435;DHT22;46552;52.150;8.428;2023-07-08T10:36:22;32.60;74.10
4435;DHT22;46552;52.150;8.428;2023-07-08T10:39:03;32.60;69.50
4435;DHT22;46552;52.150;8.428;2023-07-08T10:41:42;32.40;68.60
4435;DHT22;46552;52.150;8.428;2023-07-08T10:44:19;32.40;69.20
4435;DHT22;46552;52.150;8.428;2023-07-08T10:46:55;32.40;76.10
4435;DHT22;46552;52.150;8.428;2023-07-08T10:49:44;31.70;67.00
4435;DHT22;46552;52.150;8.428;2023-07-08T10:52:26;33.00;71.70
4435;DHT22;46552;52.150;8.428;2023-07-08T10:55:11;33.20;67.60
4435;DHT22;46552;52.150;8.428;2023-07-08T10:57:59;33.30;73.50
4435;DHT22;46552;52.150;8.428;2023-07-08T11:00:36;33.30;66.20
4435;DHT22;46552;52.150;8.428;2023-07-08T11:03:30;33.30;70.50
4435;DHT22;46552;52.150;8.428;2023-07-08T11:06:08;33.30;65.70
4435;DHT22;46552;52.150;8.428;2023-07-08T11:08:40;33.30;73.30
4435;DHT22;46552;52.150;8.428;2023-07-08T11:11:15;33.40;65.40
4435;DHT22;46552;52.150;8.428;2023-07-08T11:13:50;33.60;65.00
4435;DHT22;46552;52.150;8.428;2023-07-08T11:16:24;33.50;73.20
4435;DHT22;46552;52.150;8.428;2023-07-08T11:18:59;33.50;64.10
4435;DHT22;46552;52.150;8.428;2023-07-08T11:21:34;33.50;66.10
4435;DHT22;46552;52.150;8.428;2023-07-08T11:24:06;33.20;63.50
4435;DHT22;46552;52.150;8.428;2023-07-08T11:26:41;33.20;68.80
4435;DHT22;46552;52.150;8.428;2023-07-08T11:29:22;32.90;63.50
4435;DHT22;46552;52.150;8.428;2023-07-08T11:31:52;33.20;65.10
4435;DHT22;46552;52.150;8.428;2023-07-08T11:34:23;33.60;63.50
4435;DHT22;46552;52.150;8.428;2023-07-08T11:36:52;36.50;64.80
4435;DHT22;46552;52.150;8.428;2023-07-08T11:39:32;33.80;62.20
4435;DHT22;46552;52.150;8.428;2023-07-08T11:42:19;34.10;61.90
4435;DHT22;46552;52.150;8.428;2023-07-08T11:44:49;34.30;61.50
4435;DHT22;46552;52.150;8.428;2023-07-08T11:47:21;34.40;60.70
4435;DHT22;46552;52.150;8.428;2023-07-08T11:49:53;34.50;60.70
4435;DHT22;46552;52.150;8.428;2023-07-08T11:52:22;34.70;59.90
4435;DHT22;46552;52.150;8.428;2023-07-08T11:54:57;34.70;58.70
4435;DHT22;46552;52.150;8.428;2023-07-08T11:57:30;34.80;58.20
4435;DHT22;46552;52.150;8.428;2023-07-08T12:00:15;34.90;57.60
4435;DHT22;46552;52.150;8.428;2023-07-08T12:02:53;34.80;64.40
4435;DHT22;46552;52.150;8.428;2023-07-08T12:05:32;35.00;56.40
4435;DHT22;46552;52.150;8.428;2023-07-08T12:10:32;35.00;53.90
4435;DHT22;46552;52.150;8.428;2023-07-08T12:15:28;34.90;53.30
4435;DHT22;46552;52.150;8.428;2023-07-08T12:17:58;34.90;52.90
4435;DHT22;46552;52.150;8.428;2023-07-08T12:20:29;34.80;52.50
4435;DHT22;46552;52.150;8.428;2023-07-08T12:22:58;34.60;52.10
4435;DHT22;46552;52.150;8.428;2023-07-08T12:25:28;34.70;51.90
4435;DHT22;46552;52.150;8.428;2023-07-08T12:27:57;34.50;49.80
4435;DHT22;46552;52.150;8.428;2023-07-08T12:30:25;34.30;48.10
4435;DHT22;46552;52.150;8.428;2023-07-08T12:32:54;34.10;47.70
4435;DHT22;46552;52.150;8.428;2023-07-08T12:35:27;34.00;47.10
4435;DHT22;46552;52.150;8.428;2023-07-08T12:37:58;34.00;45.70
4435;DHT22;46552;52.150;8.428;2023-07-08T12:40:28;34.10;46.20
4435;DHT22;46552;52.150;8.428;2023-07-08T12:42:55;34.10;44.40
4435;DHT22;46552;52.150;8.428;2023-07-08T12:45:24;34.00;44.30
4435;DHT22;46552;52.150;8.428;2023-07-08T12:50:19;34.30;46.20
4435;DHT22;46552;52.150;8.428;2023-07-08T12:52:46;34.30;43.80
4435;DHT22;46552;52.150;8.428;2023-07-08T12:55:15;34.40;43.20
4435;DHT22;46552;52.150;8.428;2023-07-08T12:57:45;34.20;43.40
4435;DHT22;46552;52.150;8.428;2023-07-08T13:00:16;34.20;50.10
4435;DHT22;46552;52.150;8.428;2023-07-08T13:02:45;34.60;43.80
4435;DHT22;46552;52.150;8.428;2023-07-08T13:05:14;34.60;44.00
4435;DHT22;46552;52.150;8.428;2023-07-08T13:07:42;34.70;44.20
4435;DHT22;46552;52.150;8.428;2023-07-08T13:10:19;34.70;44.10
4435;DHT22;46552;52.150;8.428;2023-07-08T13:12:50;34.70;43.60
4435;DHT22;46552;52.150;8.428;2023-07-08T13:15:21;34.70;43.60
4435;DHT22;46552;52.150;8.428;2023-07-08T13:20:18;34.50;43.40
4435;DHT22;46552;52.150;8.428;2023-07-08T13:22:52;34.50;43.20
4435;DHT22;46552;52.150;8.428;2023-07-08T13:25:29;34.50;43.00
4435;DHT22;46552;52.150;8.428;2023-07-08T13:27:58;34.60;43.20
4435;DHT22;46552;52.150;8.428;2023-07-08T13:30:28;34.60;43.10
4435;DHT22;46552;52.150;8.428;2023-07-08T13:32:57;34.50;42.40
4435;DHT22;46552;52.150;8.428;2023-07-08T13:35:28;34.20;42.70
4435;DHT22;46552;52.150;8.428;2023-07-08T13:37:56;34.10;42.80
4435;DHT22;46552;52.150;8.428;2023-07-08T13:40:28;34.40;43.90
4435;DHT22;46552;52.150;8.428;2023-07-08T13:45:26;34.00;43.10
4435;DHT22;46552;52.150;8.428;2023-07-08T13:48:11;33.70;43.90
4435;DHT22;46552;52.150;8.428;2023-07-08T13:50:45;34.20;43.80
4435;DHT22;46552;52.150;8.428;2023-07-08T13:53:18;34.00;45.70
4435;DHT22;46552;52.150;8.428;2023-07-08T13:55:47;34.00;44.60
4435;DHT22;46552;52.150;8.428;2023-07-08T13:58:16;34.00;44.40
4435;DHT22;46552;52.150;8.428;2023-07-08T14:03:13;33.80;43.90
4435;DHT22;46552;52.150;8.428;2023-07-08T14:05:43;33.80;44.10
4435;DHT22;46552;52.150;8.428;2023-07-08T14:08:14;33.80;44.30
4435;DHT22;46552;52.150;8.428;2023-07-08T14:13:11;33.90;44.40
4435;DHT22;46552;52.150;8.428;2023-07-08T14:15:39;33.90;44.70
4435;DHT22;46552;52.150;8.428;2023-07-08T14:27:56;34.50;48.30
4435;DHT22;46552;52.150;8.428;2023-07-08T14:30:25;34.40;45.00
4435;DHT22;46552;52.150;8.428;2023-07-08T14:35:23;34.10;50.70
4435;DHT22;46552;52.150;8.428;2023-07-08T14:37:51;33.90;51.90
4435;DHT22;46552;52.150;8.428;2023-07-08T14:40:23;34.00;44.60
4435;DHT22;46552;52.150;8.428;2023-07-08T14:42:58;34.30;44.90
4435;DHT22;46552;52.150;8.428;2023-07-08T14:45:29;34.30;45.10
4435;DHT22;46552;52.150;8.428;2023-07-08T14:50:24;34.10;45.40
4435;DHT22;46552;52.150;8.428;2023-07-08T14:55:22;33.80;45.70
4435;DHT22;46552;52.150;8.428;2023-07-08T15:00:18;33.70;47.50
4435;DHT22;46552;52.150;8.428;2023-07-08T15:02:49;33.80;45.60
4435;DHT22;46552;52.150;8.428;2023-07-08T15:05:19;33.60;45.30
4435;DHT22;46552;52.150;8.428;2023-07-08T15:07:50;33.50;45.90
4435;DHT22;46552;52.150;8.428;2023-07-08T15:10:17;32.70;44.80
4435;DHT22;46552;52.150;8.428;2023-07-08T15:15:26;33.70;45.40
4435;DHT22;46552;52.150;8.428;2023-07-08T15:17:56;33.80;45.50
4435;DHT22;46552;52.150;8.428;2023-07-08T15:20:24;33.70;45.50
4435;DHT22;46552;52.150;8.428;2023-07-08T15:22:52;33.60;45.50
4435;DHT22;46552;52.150;8.428;2023-07-08T15:27:49;33.40;46.10
4435;DHT22;46552;52.150;8.428;2023-07-08T15:30:19;33.90;47.10
4435;DHT22;46552;52.150;8.428;2023-07-08T15:35:17;33.40;46.60
4435;DHT22;46552;52.150;8.428;2023-07-08T15:37:46;33.40;46.30
4435;DHT22;46552;52.150;8.428;2023-07-08T15:40:15;36.00;48.10
4435;DHT22;46552;52.150;8.428;2023-07-08T15:42:45;33.40;46.50
4435;DHT22;46552;52.150;8.428;2023-07-08T15:45:15;33.30;53.40
4435;DHT22;46552;52.150;8.428;2023-07-08T15:50:13;33.50;51.00
4435;DHT22;46552;52.150;8.428;2023-07-08T15:52:43;33.40;46.20
4435;DHT22;46552;52.150;8.428;2023-07-08T15:57:43;33.50;46.60
4435;DHT22;46552;52.150;8.428;2023-07-08T16:00:17;33.30;46.50
4435;DHT22;46552;52.150;8.428;2023-07-08T16:02:48;33.40;46.80
4435;DHT22;46552;52.150;8.428;2023-07-08T16:05:17;33.20;46.50
4435;DHT22;46552;52.150;8.428;2023-07-08T16:07:48;32.90;49.00
4435;DHT22;46552;52.150;8.428;2023-07-08T16:12:44;33.10;46.70
4435;DHT22;46552;52.150;8.428;2023-07-08T16:15:17;32.90;46.80
4435;DHT22;46552;52.150;8.428;2023-07-08T16:20:16;32.90;54.60
4435;DHT22;46552;52.150;8.428;2023-07-08T16:22:44;33.30;47.90
4435;DHT22;46552;52.150;8.428;2023-07-08T16:25:13;33.20;48.30
4435;DHT22;46552;52.150;8.428;2023-07-08T16:27:43;31.90;46.60
4435;DHT22;46552;52.150;8.428;2023-07-08T16:30:13;33.10;47.40
4435;DHT22;46552;52.150;8.428;2023-07-08T16:32:42;32.90;47.20
4435;DHT22;46552;52.150;8.428;2023-07-08T16:35:10;32.50;53.90
4435;DHT22;46552;52.150;8.428;2023-07-08T16:40:08;32.80;54.40
4435;DHT22;46552;52.150;8.428;2023-07-08T16:42:43;32.60;46.80
4435;DHT22;46552;52.150;8.428;2023-07-08T16:45:14;32.70;54.90
4435;DHT22;46552;52.150;8.428;2023-07-08T16:47:43;32.70;48.20
4435;DHT22;46552;52.150;8.428;2023-07-08T16:50:11;32.50;55.10
4435;DHT22;46552;52.150;8.428;2023-07-08T16:52:39;33.30;48.10
4435;DHT22;46552;52.150;8.428;2023-07-08T16:55:10;32.40;47.40
4435;DHT22;46552;52.150;8.428;2023-07-08T16:57:38;32.20;51.20
4435;DHT22;46552;52.150;8.428;2023-07-08T17:00:10;32.20;47.80
4435;DHT22;46552;52.150;8.428;2023-07-08T17:02:38;32.30;47.90
4435;DHT22;46552;52.150;8.428;2023-07-08T17:05:18;32.20;51.50
4435;DHT22;46552;52.150;8.428;2023-07-08T17:10:14;32.30;48.50
4435;DHT22;46552;52.150;8.428;2023-07-08T17:12:42;32.10;48.40
4435;DHT22;46552;52.150;8.428;2023-07-08T17:15:12;32.30;48.40
4435;DHT22;46552;52.150;8.428;2023-07-08T17:17:43;32.00;48.20
4435;DHT22;46552;52.150;8.428;2023-07-08T17:20:18;31.90;53.60
4435;DHT22;46552;52.150;8.428;2023-07-08T17:25:16;32.00;56.60
4435;DHT22;46552;52.150;8.428;2023-07-08T17:27:43;32.00;57.00
4435;DHT22;46552;52.150;8.428;2023-07-08T17:30:13;31.70;54.90
4435;DHT22;46552;52.150;8.428;2023-07-08T17:32:44;31.70;48.90
4435;DHT22;46552;52.150;8.428;2023-07-08T17:35:13;31.80;51.90
4435;DHT22;46552;52.150;8.428;2023-07-08T17:37:40;31.60;49.50
4435;DHT22;46552;52.150;8.428;2023-07-08T17:40:13;31.70;49.70
4435;DHT22;46552;52.150;8.428;2023-07-08T17:45:12;31.50;49.70
4435;DHT22;46552;52.150;8.428;2023-07-08T17:47:41;31.40;49.80
4435;DHT22;46552;52.150;8.428;2023-07-08T17:50:17;31.50;50.90
4435;DHT22;46552;52.150;8.428;2023-07-08T17:52:45;31.40;50.20
4435;DHT22;46552;52.150;8.428;2023-07-08T17:55:13;31.50;50.80
4435;DHT22;46552;52.150;8.428;2023-07-08T17:57:42;31.30;51.00
4435;DHT22;46552;52.150;8.428;2023-07-08T18:00:19;31.10;58.10
4435;DHT22;46552;52.150;8.428;2023-07-08T18:02:47;31.60;60.00
4435;DHT22;46552;52.150;8.428;2023-07-08T18:05:17;31.20;52.30
4435;DHT22;46552;52.150;8.428;2023-07-08T18:07:45;31.20;52.80
4435;DHT22;46552;52.150;8.428;2023-07-08T18:10:15;31.20;53.50
4435;DHT22;46552;52.150;8.428;2023-07-08T18:12:44;31.00;54.10
4435;DHT22;46552;52.150;8.428;2023-07-08T18:15:18;31.10;54.50
4435;DHT22;46552;52.150;8.428;2023-07-08T18:17:48;31.00;54.90
4435;DHT22;46552;52.150;8.428;2023-07-08T18:22:44;30.90;55.80
4435;DHT22;46552;52.150;8.428;2023-07-08T18:25:18;30.80;56.10
4435;DHT22;46552;52.150;8.428;2023-07-08T18:27:45;30.90;65.50
4435;DHT22;46552;52.150;8.428;2023-07-08T18:30:14;30.60;56.90
4435;DHT22;46552;52.150;8.428;2023-07-08T18:32:44;30.60;57.00
4435;DHT22;46552;52.150;8.428;2023-07-08T18:35:17;30.50;57.30
4435;DHT22;46552;52.150;8.428;2023-07-08T18:37:45;30.30;57.40
4435;DHT22;46552;52.150;8.428;2023-07-08T18:40:14;30.30;57.60
4435;DHT22;46552;52.150;8.428;2023-07-08T18:42:46;30.20;57.80
4435;DHT22;46552;52.150;8.428;2023-07-08T18:45:17;30.30;59.80
4435;DHT22;46552;52.150;8.428;2023-07-08T18:47:47;30.10;58.30
4435;DHT22;46552;52.150;8.428;2023-07-08T18:55:16;29.70;59.10
4435;DHT22;46552;52.150;8.428;2023-07-08T18:57:44;29.80;59.50
4435;DHT22;46552;52.150;8.428;2023-07-08T19:00:13;29.70;59.70
4435;DHT22;46552;52.150;8.428;2023-07-08T19:02:52;29.60;59.90
4435;DHT22;46552;52.150;8.428;2023-07-08T19:05:21;29.60;60.00
4435;DHT22;46552;52.150;8.428;2023-07-08T19:07:49;29.50;60.20
4435;DHT22;46552;52.150;8.428;2023-07-08T19:10:18;29.50;68.10
4435;DHT22;46552;52.150;8.428;2023-07-08T19:12:47;29.40;60.70
4435;DHT22;46552;52.150;8.428;2023-07-08T19:15:20;29.30;61.00
4435;DHT22;46552;52.150;8.428;2023-07-08T19:17:50;29.40;70.60
4435;DHT22;46552;52.150;8.428;2023-07-08T19:20:17;29.00;70.70
4435;DHT22;46552;52.150;8.428;2023-07-08T19:22:47;29.50;62.50
4435;DHT22;46552;52.150;8.428;2023-07-08T19:25:19;29.00;62.90
4435;DHT22;46552;52.150;8.428;2023-07-08T19:30:16;28.90;72.10
4435;DHT22;46552;52.150;8.428;2023-07-08T19:32:47;28.80;62.90
4435;DHT22;46552;52.150;8.428;2023-07-08T19:35:18;28.70;63.00
4435;DHT22;46552;52.150;8.428;2023-07-08T19:40:15;28.60;63.50
4435;DHT22;46552;52.150;8.428;2023-07-08T19:42:44;28.50;63.40
4435;DHT22;46552;52.150;8.428;2023-07-08T19:45:16;28.50;64.10
4435;DHT22;46552;52.150;8.428;2023-07-08T19:50:13;30.90;65.90
4435;DHT22;46552;52.150;8.428;2023-07-08T19:52:43;28.20;73.60
4435;DHT22;46552;52.150;8.428;2023-07-08T19:55:10;28.10;72.50
4435;DHT22;46552;52.150;8.428;2023-07-08T19:57:43;28.10;71.90
4435;DHT22;46552;52.150;8.428;2023-07-08T20:00:25;28.10;74.30
4435;DHT22;46552;52.150;8.428;2023-07-08T20:02:54;27.80;67.00
4435;DHT22;46552;52.150;8.428;2023-07-08T20:05:26;27.70;68.00
4435;DHT22;46552;52.150;8.428;2023-07-08T20:07:58;27.60;77.60
4435;DHT22;46552;52.150;8.428;2023-07-08T20:10:28;27.50;78.50
4435;DHT22;46552;52.150;8.428;2023-07-08T20:12:56;27.20;71.00
4435;DHT22;46552;52.150;8.428;2023-07-08T20:15:25;27.30;71.40
4435;DHT22;46552;52.150;8.428;2023-07-08T20:17:55;27.20;72.10
4435;DHT22;46552;52.150;8.428;2023-07-08T20:20:23;27.10;82.10
4435;DHT22;46552;52.150;8.428;2023-07-08T20:22:52;27.10;73.20
4435;DHT22;46552;52.150;8.428;2023-07-08T20:25:21;26.70;75.20
4435;DHT22;46552;52.150;8.428;2023-07-08T20:27:50;26.90;74.30
4435;DHT22;46552;52.150;8.428;2023-07-08T20:30:20;26.70;84.60
4435;DHT22;46552;52.150;8.428;2023-07-08T20:32:48;26.80;83.70
4435;DHT22;46552;52.150;8.428;2023-07-08T20:35:17;26.70;85.90
4435;DHT22;46552;52.150;8.428;2023-07-08T20:37:45;26.50;85.30
4435;DHT22;46552;52.150;8.428;2023-07-08T20:40:16;26.40;78.30
4435;DHT22;46552;52.150;8.428;2023-07-08T20:42:46;26.20;87.40
4435;DHT22;46552;52.150;8.428;2023-07-08T20:45:14;26.20;88.70
4435;DHT22;46552;52.150;8.428;2023-07-08T20:47:42;26.20;90.30
4435;DHT22;46552;52.150;8.428;2023-07-08T20:50:17;26.10;81.90
4435;DHT22;46552;52.150;8.428;2023-07-08T20:52:44;26.00;90.60
4435;DHT22;46552;52.150;8.428;2023-07-08T20:55:13;25.90;83.70
4435;DHT22;46552;52.150;8.428;2023-07-08T20:57:41;25.60;91.30
4435;DHT22;46552;52.150;8.428;2023-07-08T21:00:21;25.80;92.10
4435;DHT22;46552;52.150;8.428;2023-07-08T21:05:17;25.70;92.40
4435;DHT22;46552;52.150;8.428;2023-07-08T21:10:15;25.60;88.50
4435;DHT22;46552;52.150;8.428;2023-07-08T21:12:44;25.50;89.20
4435;DHT22;46552;52.150;8.428;2023-07-08T21:17:41;25.40;94.80
4435;DHT22;46552;52.150;8.428;2023-07-08T21:20:17;25.30;94.50
4435;DHT22;46552;52.150;8.428;2023-07-08T21:22:45;24.90;94.90
4435;DHT22;46552;52.150;8.428;2023-07-08T21:25:14;25.20;91.40
4435;DHT22;46552;52.150;8.428;2023-07-08T21:27:43;25.10;91.60
4435;DHT22;46552;52.150;8.428;2023-07-08T21:30:16;25.10;96.50
4435;DHT22;46552;52.150;8.428;2023-07-08T21:32:47;25.00;96.00
4435;DHT22;46552;52.150;8.428;2023-07-08T21:35:14;25.00;97.50
4435;DHT22;46552;52.150;8.428;2023-07-08T21:37:47;24.90;93.10
4435;DHT22;46552;52.150;8.428;2023-07-08T21:40:25;24.80;93.50
4435;DHT22;46552;52.150;8.428;2023-07-08T21:45:28;24.50;98.40
4435;DHT22;46552;52.150;8.428;2023-07-08T21:47:58;24.40;94.80
4435;DHT22;46552;52.150;8.428;2023-07-08T21:50:27;24.40;95.10
4435;DHT22;46552;52.150;8.428;2023-07-08T21:52:58;24.30;96.80
4435;DHT22;46552;52.150;8.428;2023-07-08T21:55:27;24.20;99.90
4435;DHT22;46552;52.150;8.428;2023-07-08T21:57:54;24.20;96.00
4435;DHT22;46552;52.150;8.428;2023-07-08T22:00:23;24.20;99.90
4435;DHT22;46552;52.150;8.428;2023-07-08T22:02:52;24.10;96.80
4435;DHT22;46552;52.150;8.428;2023-07-08T22:05:21;24.10;97.10
4435;DHT22;46552;52.150;8.428;2023-07-08T22:07:50;24.00;99.90
4435;DHT22;46552;52.150;8.428;2023-07-08T22:10:20;24.00;99.90
4435;DHT22;46552;52.150;8.428;2023-07-08T22:12:48;23.90;97.80
4435;DHT22;46552;52.150;8.428;2023-07-08T22:15:19;23.90;98.00
4435;DHT22;46552;52.150;8.428;2023-07-08T22:17:49;23.90;98.30
4435;DHT22;46552;52.150;8.428;2023-07-08T22:20:18;23.90;99.90
4435;DHT22;46552;52.150;8.428;2023-07-08T22:22:47;23.80;98.60
4435;DHT22;46552;52.150;8.428;2023-07-08T22:25:19;23.80;99.90
4435;DHT22;46552;52.150;8.428;2023-07-08T22:27:47;23.60;99.90
4435;DHT22;46552;52.150;8.428;2023-07-08T22:30:14;23.60;99.90
4435;DHT22;46552;52.150;8.428;2023-07-08T22:32:43;23.50;99.90
4435;DHT22;46552;52.150;8.428;2023-07-08T22:35:16;23.30;99.90